createdAt,value
2018-09-21T00:06:18.000Z,23.16
2018-09-21T00:16:18.000Z,23.07
2018-09-21T00:26:18.000Z,23.02
2018-09-21T00:36:18.000Z,22.94
2018-09-21T00:46:18.000Z,22.99
2018-09-21T00:56:18.000Z,22.96
2018-09-21T01:06:18.000Z,22.94
2018-09-21T01:16:18.000Z,22.91
2018-09-21T01:26:18.000Z,22.74
2018-09-21T01:36:18.000Z,22.76
2018-09-21T01:46:18.000Z,22.81
2018-09-21T01:56:18.000Z,22.74
2018-09-21T02:06:18.000Z,22.68
2018-09-21T02:16:18.000Z,22.64
2018-09-21T02:26:18.000Z,22.66
2018-09-21T02:36:18.000Z,22.62
2018-09-21T02:46:18.000Z,22.62
2018-09-21T02:56:18.000Z,22.61
2018-09-21T03:06:18.000Z,22.49
2018-09-21T03:16:18.000Z,22.54
2018-09-21T03:26:18.000Z,22.45
2018-09-21T03:36:18.000Z,22.4
2018-09-21T03:46:18.000Z,22.44
2018-09-21T03:56:18.000Z,22.41
2018-09-21T04:06:18.000Z,22.44
2018-09-21T04:16:19.000Z,22.45
2018-09-21T04:26:19.000Z,22.47
2018-09-21T04:36:19.000Z,22.47
2018-09-21T04:46:19.000Z,22.53
2018-09-21T04:56:19.000Z,22.48
2018-09-21T05:06:19.000Z,22.62
2018-09-21T05:16:19.000Z,22.58
2018-09-21T05:26:19.000Z,22.64
2018-09-21T05:36:19.000Z,22.7
2018-09-21T05:46:19.000Z,22.77
2018-09-21T05:56:19.000Z,22.83
2018-09-21T06:06:19.000Z,22.91
2018-09-21T06:16:19.000Z,22.93
2018-09-21T06:26:19.000Z,22.97
2018-09-21T06:36:19.000Z,23.02
2018-09-21T06:46:20.000Z,23.1
2018-09-21T06:56:19.000Z,23.08
2018-09-21T07:06:19.000Z,23.14
2018-09-21T07:16:19.000Z,23.16
2018-09-21T07:26:19.000Z,23.14
2018-09-21T07:36:19.000Z,23.19
2018-09-21T07:46:19.000Z,23.21
2018-09-21T07:56:19.000Z,23.25
2018-09-21T08:06:19.000Z,23.15
2018-09-21T08:16:19.000Z,23.12
2018-09-21T08:26:19.000Z,23.2
2018-09-21T08:36:19.000Z,23.24
2018-09-21T08:46:19.000Z,23.22
2018-09-21T08:56:19.000Z,23.34
2018-09-21T09:06:19.000Z,23.3
2018-09-21T09:16:19.000Z,23.06
2018-09-21T09:26:19.000Z,22.61
2018-09-21T09:36:19.000Z,22.69
2018-09-21T09:46:19.000Z,22.8
2018-09-21T09:56:19.000Z,22.67
2018-09-21T10:06:19.000Z,22.75
2018-09-21T10:16:19.000Z,22.64
2018-09-21T10:26:19.000Z,22.54
2018-09-21T10:36:19.000Z,22.49
2018-09-21T10:46:19.000Z,22.62
2018-09-21T10:56:19.000Z,22.51
2018-09-21T11:06:19.000Z,22.4
2018-09-21T11:16:19.000Z,22.61
2018-09-21T11:26:19.000Z,22.66
2018-09-21T11:36:19.000Z,22.42
2018-09-21T11:46:19.000Z,22.37
2018-09-21T11:56:19.000Z,22.38
2018-09-21T12:06:19.000Z,22.29
2018-09-21T12:16:19.000Z,22.25
2018-09-21T12:26:19.000Z,22.26
2018-09-21T12:36:20.000Z,22.05
2018-09-21T12:46:20.000Z,22.03
2018-09-21T12:56:20.000Z,21.89
2018-09-21T13:06:20.000Z,22.01
2018-09-21T13:16:20.000Z,22.03
2018-09-21T13:26:20.000Z,21.78
2018-09-21T13:36:20.000Z,21.69
2018-09-21T13:46:20.000Z,21.81
2018-09-21T13:56:20.000Z,21.78
2018-09-21T14:06:20.000Z,21.86
2018-09-21T14:16:20.000Z,21.77
2018-09-21T14:26:20.000Z,21.66
2018-09-21T14:36:20.000Z,21.43
2018-09-21T14:46:20.000Z,21.57
2018-09-21T14:56:20.000Z,21.64
2018-09-21T15:06:20.000Z,21.61
2018-09-21T15:16:20.000Z,21.29
2018-09-21T15:26:20.000Z,21.29
2018-09-21T15:36:20.000Z,21.43
2018-09-21T15:46:20.000Z,21.27
2018-09-21T15:56:20.000Z,21.38
2018-09-21T16:06:20.000Z,21.25
2018-09-21T16:16:20.000Z,21.28
2018-09-21T16:26:20.000Z,21.44
2018-09-21T16:36:20.000Z,21.48
2018-09-21T16:46:20.000Z,20.94
2018-09-21T16:56:20.000Z,21.08
2018-09-21T17:06:20.000Z,21.23
2018-09-21T17:16:24.000Z,21.25
2018-09-21T17:26:20.000Z,21.5
2018-09-21T17:36:20.000Z,21.58
2018-09-21T17:46:20.000Z,21.67
2018-09-21T17:56:20.000Z,21.71
2018-09-21T18:06:20.000Z,21.75
2018-09-21T18:16:20.000Z,21.8
2018-09-21T18:26:20.000Z,21.82
2018-09-21T18:36:20.000Z,21.87
2018-09-21T18:46:20.000Z,21.87
2018-09-21T18:56:20.000Z,21.91
2018-09-21T19:06:20.000Z,21.88
2018-09-21T19:16:20.000Z,21.9
2018-09-21T19:26:20.000Z,21.92
2018-09-21T19:46:20.000Z,21.93
2018-09-21T19:56:20.000Z,21.93
2018-09-21T20:06:20.000Z,21.93
2018-09-21T20:16:20.000Z,21.9
2018-09-21T20:26:20.000Z,21.92
2018-09-21T20:36:20.000Z,21.9
2018-09-21T20:46:20.000Z,21.89
2018-09-21T20:56:21.000Z,21.89
2018-09-21T21:06:21.000Z,21.91
2018-09-21T21:16:23.000Z,21.84
2018-09-21T21:26:21.000Z,21.81
2018-09-21T21:36:21.000Z,21.8
2018-09-21T21:46:21.000Z,21.78
2018-09-21T21:56:21.000Z,21.75
2018-09-21T22:06:21.000Z,21.74
2018-09-21T22:16:21.000Z,21.69
2018-09-21T22:26:21.000Z,21.63
2018-09-21T22:36:21.000Z,21.58
2018-09-21T22:46:22.000Z,21.55
2018-09-21T22:56:21.000Z,21.5
2018-09-21T23:06:21.000Z,21.5
2018-09-21T23:16:21.000Z,21.42
2018-09-21T23:26:21.000Z,21.35
2018-09-21T23:36:21.000Z,21.29
2018-09-21T23:46:21.000Z,21.26
2018-09-21T23:56:21.000Z,21.21
